Time;durP1;ratioP1;P1;durP2;ratioP2;P2;SDS_P1;SDS_P2;PMS_P1;PMS_P2;Temp;Humidity;BMP_temperature;BMP_pressure;BME280_temperature;BME280_humidity;BME280_pressure;Samples;Min_cycle;Max_cycle;Signal;HPM_P1;HPM_P2
2021/01/15 00:03:23;;;;;;;44.13;19.63;;;;;;;-1.63;88.48;98789.42;4186126;83;21200;-83
2021/01/15 00:09:24;;;;;;;51.83;21.93;;;;;;;-1.69;88.43;98794.08;4176255;83;21757;-83
2021/01/15 00:15:26;;;;;;;51.13;20.67;;;;;;;-1.75;88.51;98802.53;4179123;83;21249;-83
2021/01/15 00:21:33;;;;;;;49.30;20.97;;;;;;;-1.79;88.58;98813.09;4171567;83;21197;-84
2021/01/15 00:27:37;;;;;;;50.93;21.67;;;;;;;-1.79;88.81;98813.09;4122959;84;21281;-83
2021/01/15 00:33:43;;;;;;;45.57;20.03;;;;;;;-1.73;88.88;98821.81;4214444;83;21690;-83
2021/01/15 00:39:44;;;;;;;40.43;18.90;;;;;;;-1.70;88.80;98833.30;4217620;83;21261;-83
2021/01/15 00:45:46;;;;;;;26.40;11.93;;;;;;;-1.68;88.64;98831.12;4143021;84;21368;-83
2021/01/15 00:51:51;;;;;;;23.60;10.60;;;;;;;-1.83;87.52;98841.59;4167281;83;21323;-83
2021/01/15 00:57:54;;;;;;;23.85;11.48;;;;;;;-1.94;87.71;98842.87;4185728;83;21205;-83
2021/01/15 01:03:55;;;;;;;30.47;12.90;;;;;;;-1.94;87.77;98841.54;4132624;84;21544;-83
2021/01/15 01:09:57;;;;;;;39.37;18.57;;;;;;;-1.91;87.80;98849.56;4214695;83;21221;-83
2021/01/15 01:15:58;;;;;;;34.93;14.50;;;;;;;-1.95;87.50;98858.73;4239387;83;21245;-83
2021/01/15 01:22:00;;;;;;;23.57;10.77;;;;;;;-2.04;87.10;98867.77;4173327;83;21260;-84
2021/01/15 01:28:01;;;;;;;18.33;9.77;;;;;;;-2.13;86.92;98882.95;4187750;83;21374;-83
2021/01/15 01:34:03;;;;;;;25.70;9.57;;;;;;;-2.21;86.98;98881.72;4230471;83;21236;-83
2021/01/15 01:40:06;;;;;;;20.57;9.67;;;;;;;-2.32;86.88;98893.70;4135583;84;21173;-84
2021/01/15 01:46:08;;;;;;;22.97;9.77;;;;;;;-2.34;86.80;98900.46;4133753;84;21215;-84
2021/01/15 01:52:10;;;;;;;20.17;8.53;;;;;;;-2.42;86.78;98897.91;4181874;83;21861;-84
2021/01/15 01:58:15;;;;;;;22.80;10.27;;;;;;;-2.44;86.60;98904.09;4240447;83;21663;-83
2021/01/15 02:04:16;;;;;;;20.83;8.43;;;;;;;-2.45;86.86;98903.05;4240913;83;21253;-83
2021/01/15 02:10:32;;;;;;;17.80;8.23;;;;;;;-2.56;86.46;98900.28;4140619;84;21236;-83
2021/01/15 02:16:35;;;;;;;20.35;10.28;;;;;;;-2.58;86.84;98901.10;4209217;83;21230;-83
2021/01/15 02:23:05;;;;;;;23.30;10.77;;;;;;;-2.54;86.77;98904.27;4226592;83;21169;-83
2021/01/15 02:29:18;;;;;;;23.00;10.47;;;;;;;-2.52;86.88;98902.64;4232816;82;21354;-83
2021/01/15 02:35:31;;;;;;;22.00;10.67;;;;;;;-2.51;86.65;98901.55;4205398;82;21217;-83
2021/01/15 02:41:34;;;;;;;24.90;12.37;;;;;;;-2.52;86.83;98899.96;4194589;82;21370;-83
2021/01/15 02:47:51;;;;;;;27.93;13.17;;;;;;;-2.56;86.40;98898.41;4193462;82;21868;-83
2021/01/15 02:53:53;;;;;;;29.80;13.67;;;;;;;-2.61;86.51;98900.34;4206592;82;21176;-83
2021/01/15 02:59:54;;;;;;;32.37;13.63;;;;;;;-2.64;86.76;98917.81;4204811;82;21252;-83
2021/01/15 03:06:16;;;;;;;35.87;14.63;;;;;;;-2.68;86.61;98920.84;4210351;82;21838;-83
2021/01/15 03:12:21;;;;;;;32.50;14.97;;;;;;;-2.73;86.38;98926.80;4184896;82;21523;-83
2021/01/15 03:18:24;;;;;;;23.22;10.68;;;;;;;-2.71;86.92;98936.13;4197788;82;21557;-83
2021/01/15 03:24:27;;;;;;;35.33;15.17;;;;;;;-2.68;86.65;98934.77;4201689;82;21337;-83
2021/01/15 03:30:30;;;;;;;34.10;15.10;;;;;;;-2.67;86.78;98931.80;4219033;82;21205;-83
2021/01/15 03:36:33;;;;;;;40.33;16.53;;;;;;;-2.71;86.65;98930.77;4203399;82;21253;-83
2021/01/15 03:42:34;;;;;;;37.80;16.03;;;;;;;-2.64;87.18;98929.88;4204820;82;21149;-84
2021/01/15 03:48:36;;;;;;;37.63;16.10;;;;;;;-2.58;87.03;98933.27;4203390;82;21363;-83
2021/01/15 03:54:37;;;;;;;33.20;14.40;;;;;;;-2.61;86.91;98929.83;4215397;82;21302;-84
2021/01/15 04:00:39;;;;;;;37.57;16.60;;;;;;;-2.70;86.94;98925.69;4267819;82;21196;-83
2021/01/15 04:06:40;;;;;;;37.30;16.37;;;;;;;-2.76;86.90;98928.72;4237535;82;22254;-83
2021/01/15 04:12:43;;;;;;;34.47;15.73;;;;;;;-2.78;87.04;98922.31;4274914;81;21378;-83
2021/01/15 04:18:44;;;;;;;45.10;17.63;;;;;;;-2.78;86.96;98920.97;4277336;81;21744;-84
2021/01/15 04:24:46;;;;;;;45.53;19.90;;;;;;;-2.85;87.10;98917.07;4269154;81;21378;-84
2021/01/15 04:30:49;;;;;;;44.30;19.43;;;;;;;-2.83;87.18;98915.69;4236415;81;21299;-84
2021/01/15 04:36:51;;;;;;;41.77;18.80;;;;;;;-2.81;87.28;98906.02;4209543;82;21193;-84
2021/01/15 04:42:54;;;;;;;51.43;22.17;;;;;;;-2.84;87.16;98912.77;4216571;82;21643;-84
2021/01/15 04:48:57;;;;;;;53.00;23.40;;;;;;;-2.88;87.50;98913.63;4216428;82;21225;-83
2021/01/15 04:54:59;;;;;;;49.63;23.33;;;;;;;-2.87;87.44;98916.55;4222682;82;21192;-84
2021/01/15 05:01:02;;;;;;;51.00;23.57;;;;;;;-2.87;87.49;98916.02;4219190;82;21624;-83
2021/01/15 05:07:06;;;;;;;55.33;23.63;;;;;;;-2.89;87.46;98912.02;4212769;82;21189;-83
2021/01/15 05:13:11;;;;;;;54.80;25.93;;;;;;;-2.88;87.61;98911.73;4211064;82;21189;-84
2021/01/15 05:19:14;;;;;;;61.90;27.80;;;;;;;-2.87;87.62;98916.02;4216159;82;21781;-83
2021/01/15 05:25:15;;;;;;;55.97;25.03;;;;;;;-2.84;87.71;98923.48;4216569;82;21193;-83
2021/01/15 05:31:16;;;;;;;66.57;27.90;;;;;;;-2.85;87.58;98911.72;4217466;82;21827;-84
2021/01/15 05:37:20;;;;;;;54.30;23.33;;;;;;;-2.88;87.66;98919.77;4211847;82;21233;-84
2021/01/15 05:43:32;;;;;;;54.17;24.07;;;;;;;-2.89;87.65;98922.73;4222850;82;21347;-84
2021/01/15 05:49:35;;;;;;;58.67;24.80;;;;;;;-2.89;87.73;98924.88;4221936;83;21330;-84
2021/01/15 05:55:37;;;;;;;52.83;23.37;;;;;;;-2.87;87.79;98919.23;4217756;83;21136;-84
2021/01/15 06:01:55;;;;;;;53.17;25.40;;;;;;;-2.89;87.64;98922.73;4217924;83;21580;-84
2021/01/15 06:07:58;;;;;;;53.97;25.77;;;;;;;-2.92;87.71;98930.02;4217355;82;21715;-83
2021/01/15 06:13:59;;;;;;;52.37;25.63;;;;;;;-2.90;87.89;98931.34;4220166;82;21190;-84
2021/01/15 06:20:04;;;;;;;62.20;26.80;;;;;;;-2.91;87.75;98936.98;4209718;82;21334;-84
2021/01/15 06:26:10;;;;;;;53.50;22.30;;;;;;;-2.99;87.80;98947.77;4225919;82;21181;-84
2021/01/15 06:32:16;;;;;;;30.60;14.43;;;;;;;-3.17;87.57;98985.23;4222263;82;21185;-83
2021/01/15 06:38:21;;;;;;;47.03;14.97;;;;;;;-3.76;87.04;98994.41;4220949;82;21338;-84
2021/01/15 06:44:25;;;;;;;125.63;54.60;;;;;;;-4.02;87.30;99001.08;4237857;82;21225;-83
2021/01/15 06:50:27;;;;;;;46.80;18.60;;;;;;;-4.16;87.28;99016.69;4241474;82;21636;-84
2021/01/15 06:56:33;;;;;;;51.77;22.90;;;;;;;-4.17;87.65;99023.93;4209647;83;21182;-83
2021/01/15 07:03:00;;;;;;;78.13;24.40;;;;;;;-4.19;87.37;99035.95;4087709;84;21372;-84
2021/01/15 07:09:08;;;;;;;32.50;16.57;;;;;;;-4.20;87.54;99045.06;4223680;82;21221;-84
2021/01/15 07:15:14;;;;;;;33.97;15.23;;;;;;;-4.10;87.56;99057.81;4230328;82;21204;-84
2021/01/15 07:21:21;;;;;;;36.17;14.90;;;;;;;-4.03;87.68;99058.31;4225531;82;21225;-84
2021/01/15 07:27:23;;;;;;;40.33;14.20;;;;;;;-3.98;87.29;99063.63;4216162;82;21199;-84
2021/01/15 07:33:27;;;;;;;30.80;13.77;;;;;;;-3.95;87.00;99068.95;4263503;81;21214;-84
2021/01/15 07:39:29;;;;;;;26.00;13.37;;;;;;;-3.99;86.61;99074.58;4255227;81;21318;-84
2021/01/15 07:45:41;;;;;;;29.20;13.20;;;;;;;-4.02;86.61;99078.62;4265628;81;21224;-84
2021/01/15 07:51:42;;;;;;;136.33;51.07;;;;;;;-4.01;86.36;99088.22;4274064;81;21374;-84
2021/01/15 07:57:43;;;;;;;43.07;17.67;;;;;;;-3.99;86.66;99104.80;4282735;81;21260;-84
2021/01/15 08:03:58;;;;;;;72.60;29.53;;;;;;;-4.00;86.37;99124.60;4262360;81;21382;-83
2021/01/15 08:09:59;;;;;;;21.80;12.27;;;;;;;-3.95;86.38;99136.61;4279728;81;21658;-84
2021/01/15 08:16:06;;;;;;;18.37;8.63;;;;;;;-3.98;86.04;99143.05;4281447;81;21216;-83
2021/01/15 08:22:12;;;;;;;20.20;9.70;;;;;;;-4.06;85.77;99145.77;4271277;81;22382;-83
2021/01/15 08:28:14;;;;;;;20.70;10.50;;;;;;;-4.12;85.29;99154.87;4275336;81;21184;-84
2021/01/15 08:34:19;;;;;;;25.70;12.27;;;;;;;-4.06;84.84;99160.47;4261179;81;21220;-83
2021/01/15 08:40:30;;;;;;;45.15;12.95;;;;;;;-4.00;85.00;99172.73;4271818;81;21188;-84
2021/01/15 08:46:33;;;;;;;23.70;11.97;;;;;;;-4.09;84.49;99174.92;4271049;81;21232;-84
2021/01/15 08:52:36;;;;;;;21.77;11.43;;;;;;;-4.13;84.58;99189.89;4275191;81;21186;-84
2021/01/15 08:58:48;;;;;;;40.13;14.63;;;;;;;-4.13;84.26;99199.25;4274300;81;21221;-83
2021/01/15 09:04:54;;;;;;;21.67;10.40;;;;;;;-4.06;84.00;99206.45;4250097;81;21180;-83
2021/01/15 09:10:56;;;;;;;29.97;12.93;;;;;;;-3.85;84.06;99214.65;4268242;81;21225;-84
2021/01/15 09:16:59;;;;;;;63.10;17.77;;;;;;;-3.75;83.62;99220.73;4268385;81;21350;-83
2021/01/15 09:23:01;;;;;;;36.20;13.03;;;;;;;-3.78;83.20;99233.85;4267626;81;21200;-83
2021/01/15 09:29:03;;;;;;;57.73;24.30;;;;;;;-3.81;83.10;99235.74;4268344;81;21232;-83
2021/01/15 09:35:05;;;;;;;137.40;52.77;;;;;;;-3.68;82.80;99236.48;4230415;82;21203;-83
2021/01/15 09:41:07;;;;;;;28.60;12.73;;;;;;;-3.45;82.84;99247.31;4257819;82;21374;-83
2021/01/15 09:47:09;;;;;;;25.23;10.33;;;;;;;-3.10;83.06;99248.13;4253116;82;21696;-84
2021/01/15 09:53:11;;;;;;;40.17;18.17;;;;;;;-2.68;83.33;99255.80;4212174;83;21166;-83
2021/01/15 09:59:15;;;;;;;26.47;11.77;;;;;;;-2.45;82.90;99252.34;4214065;83;21197;-83
2021/01/15 10:05:18;;;;;;;20.23;9.53;;;;;;;-2.32;82.83;99248.97;4260361;82;21215;-83
2021/01/15 10:11:23;;;;;;;18.97;8.80;;;;;;;-1.95;82.25;99250.96;4225965;83;21234;-84
2021/01/15 10:17:25;;;;;;;22.93;10.13;;;;;;;-1.45;82.45;99239.55;4203873;83;21218;-84
2021/01/15 10:23:26;;;;;;;25.00;11.53;;;;;;;-1.43;81.73;99241.95;4147342;84;21192;-84
2021/01/15 10:29:28;;;;;;;25.33;12.00;;;;;;;-1.28;80.84;99241.17;4225815;83;21203;-83
2021/01/15 10:35:30;;;;;;;24.60;11.47;;;;;;;-1.42;80.85;99240.84;4137098;84;21250;-85
2021/01/15 10:41:38;;;;;;;34.00;14.17;;;;;;;-0.81;81.07;99238.27;4132837;84;21238;-84
2021/01/15 10:47:42;;;;;;;27.27;12.13;;;;;;;-0.69;73.04;99212.27;4214497;83;21153;-84
2021/01/15 10:53:43;;;;;;;22.60;10.50;;;;;;;-1.03;70.69;99194.29;4208345;83;21173;-85
2021/01/15 10:59:44;;;;;;;22.15;9.58;;;;;;;-1.44;72.20;99189.34;4182250;83;21639;-84
2021/01/15 11:05:48;;;;;;;29.07;13.00;;;;;;;-1.51;71.22;99192.39;4221127;83;21611;-84
2021/01/15 11:11:51;;;;;;;19.67;9.13;;;;;;;-1.67;71.76;99190.47;4130515;84;21193;-84
2021/01/15 11:17:52;;;;;;;24.40;11.22;;;;;;;-1.63;72.11;99190.70;4149380;84;21604;-84
2021/01/15 11:23:54;;;;;;;14.90;6.40;;;;;;;-1.83;71.44;99177.55;4165728;84;21190;-83
2021/01/15 11:29:55;;;;;;;18.23;7.97;;;;;;;-1.80;66.94;99164.88;4221618;82;21259;-83
2021/01/15 11:35:57;;;;;;;15.27;6.20;;;;;;;-1.89;71.33;99155.36;4220037;83;21189;-83
2021/01/15 11:41:58;;;;;;;13.77;6.40;;;;;;;-2.17;69.62;99148.24;4128150;84;21383;-83
2021/01/15 11:48:00;;;;;;;9.13;5.10;;;;;;;-2.32;69.92;99153.00;4225454;82;21205;-83
2021/01/15 11:54:02;;;;;;;14.13;6.03;;;;;;;-1.92;72.43;99165.88;4135553;85;21820;-83
2021/01/15 12:00:05;;;;;;;25.47;10.13;;;;;;;-1.51;72.77;99156.14;4214081;83;21221;-83
2021/01/15 12:06:09;;;;;;;22.03;10.10;;;;;;;-1.57;72.82;99137.95;4208346;83;21542;-83
2021/01/15 12:12:11;;;;;;;19.93;10.17;;;;;;;-1.39;73.43;99151.67;4214949;83;21794;-83
2021/01/15 12:18:12;;;;;;;19.77;8.67;;;;;;;-1.22;73.47;99164.02;4215155;83;21206;-83
2021/01/15 12:24:15;;;;;;;20.17;8.65;;;;;;;-1.17;72.44;99147.25;4208407;83;21181;-83
2021/01/15 12:30:18;;;;;;;14.43;6.97;;;;;;;-1.27;72.49;99150.66;4215383;82;21774;-83
2021/01/15 12:36:20;;;;;;;17.63;8.40;;;;;;;-1.55;72.11;99148.97;4226566;82;21240;-83
2021/01/15 12:42:21;;;;;;;22.90;9.73;;;;;;;-1.39;71.75;99138.25;4214661;82;21229;-83
2021/01/15 12:48:23;;;;;;;19.77;9.60;;;;;;;-1.33;71.37;99137.07;4223370;82;22385;-83
2021/01/15 12:54:24;;;;;;;19.77;8.87;;;;;;;-1.50;71.87;99135.47;4204528;83;21668;-83
2021/01/15 13:00:28;;;;;;;25.47;11.80;;;;;;;-1.53;70.66;99137.41;4148866;84;21466;-83
2021/01/15 13:06:37;;;;;;;21.70;10.43;;;;;;;-1.59;71.07;99140.70;4219858;82;21193;-83
2021/01/15 13:12:40;;;;;;;25.00;11.45;;;;;;;-1.57;70.76;99139.87;4218365;83;21228;-84
2021/01/15 13:18:41;;;;;;;23.23;8.87;;;;;;;-1.69;70.10;99137.62;4219467;83;21804;-83
2021/01/15 13:24:44;;;;;;;28.03;9.93;;;;;;;-1.61;71.17;99135.62;4218492;83;21200;-83
2021/01/15 13:30:46;;;;;;;19.10;9.20;;;;;;;-1.64;71.43;99137.55;4133788;84;21236;-83
2021/01/15 13:36:49;;;;;;;25.13;9.67;;;;;;;-1.73;70.50;99143.33;4211526;82;21658;-82
2021/01/15 13:42:58;;;;;;;20.07;6.67;;;;;;;-1.86;70.67;99147.27;4198557;83;21163;-82
2021/01/15 13:49:00;;;;;;;18.60;6.73;;;;;;;-1.93;70.15;99150.88;4132515;84;21327;-82
2021/01/15 13:55:01;;;;;;;10.93;4.63;;;;;;;-2.04;70.80;99152.09;4116386;84;21393;-82
2021/01/15 14:01:03;;;;;;;8.80;3.67;;;;;;;-2.14;70.28;99154.37;4221069;82;21783;-82
2021/01/15 14:07:04;;;;;;;10.23;4.47;;;;;;;-2.38;70.31;99146.11;4133127;85;21603;-83
2021/01/15 14:13:07;;;;;;;15.93;6.50;;;;;;;-2.38;70.89;99157.61;4140914;85;21221;-81
2021/01/15 14:19:08;;;;;;;21.93;8.40;;;;;;;-2.44;70.10;99165.47;4213737;83;21529;-82
2021/01/15 14:25:11;;;;;;;25.43;9.63;;;;;;;-2.53;70.21;99165.04;4199896;83;21174;-82
2021/01/15 14:31:13;;;;;;;22.43;9.73;;;;;;;-2.70;70.30;99165.50;4210426;82;21162;-82
2021/01/15 14:37:14;;;;;;;30.77;11.57;;;;;;;-2.95;70.52;99171.13;4138506;85;21245;-83
2021/01/15 14:43:16;;;;;;;35.87;14.13;;;;;;;-3.11;70.72;99171.00;4128304;84;21182;-83
2021/01/15 14:49:18;;;;;;;36.13;15.03;;;;;;;-3.15;71.02;99170.50;4134950;84;21196;-83
2021/01/15 14:55:20;;;;;;;36.63;14.30;;;;;;;-3.25;70.60;99172.20;4136368;84;21795;-83
2021/01/15 15:01:22;;;;;;;38.80;16.87;;;;;;;-3.36;71.26;99161.84;4125949;84;21173;-83
2021/01/15 15:07:23;;;;;;;35.50;15.33;;;;;;;-3.47;71.22;99163.00;4131331;84;21233;-82
2021/01/15 15:13:25;;;;;;;40.57;16.33;;;;;;;-3.61;71.64;99164.72;4128543;84;21224;-82
2021/01/15 15:19:26;;;;;;;40.77;17.07;;;;;;;-3.80;71.31;99157.09;4126852;84;21363;-82
2021/01/15 15:25:28;;;;;;;57.93;23.10;;;;;;;-4.03;71.85;99161.78;4130390;84;21253;-83
2021/01/15 15:31:31;;;;;;;56.77;22.20;;;;;;;-4.26;72.23;99151.76;4224327;82;21209;-82
2021/01/15 15:37:32;;;;;;;58.17;23.97;;;;;;;-4.24;71.92;99158.94;4276442;81;21244;-83
2021/01/15 15:43:35;;;;;;;59.27;24.13;;;;;;;-4.20;71.82;99156.00;4271763;81;21200;-82
2021/01/15 15:49:37;;;;;;;60.03;23.07;;;;;;;-4.14;72.09;99151.69;4279452;81;21185;-82
2021/01/15 15:55:38;;;;;;;58.50;22.10;;;;;;;-4.12;71.92;99162.89;4258057;81;21362;-83
2021/01/15 16:01:40;;;;;;;53.30;20.50;;;;;;;-4.09;72.10;99163.70;4240424;82;21168;-83
2021/01/15 16:07:41;;;;;;;54.10;22.40;;;;;;;-4.23;72.71;99160.56;4252353;82;21324;-83
2021/01/15 16:13:42;;;;;;;56.87;22.67;;;;;;;-4.25;72.69;99158.69;4266716;82;21222;-83
2021/01/15 16:19:44;;;;;;;57.87;21.43;;;;;;;-4.25;72.72;99163.51;4240248;82;21350;-83
2021/01/15 16:25:45;;;;;;;60.10;23.00;;;;;;;-4.19;72.89;99164.27;4236089;82;21372;-83
2021/01/15 16:31:55;;;;;;;51.93;20.10;;;;;;;-4.20;72.80;99156.81;4277235;81;21544;-83
2021/01/15 16:38:19;;;;;;;54.37;22.33;;;;;;;-4.16;72.48;99164.53;4282308;81;21385;-83
2021/01/15 16:44:21;;;;;;;54.53;19.90;;;;;;;-4.28;72.72;99160.58;4235295;82;21643;-83
2021/01/15 16:50:22;;;;;;;58.33;19.90;;;;;;;-4.40;72.61;99154.77;4201340;82;21387;-83
2021/01/15 16:56:24;;;;;;;54.70;20.83;;;;;;;-4.36;72.75;99166.48;4206669;82;21693;-83
2021/01/15 17:02:25;;;;;;;56.70;20.10;;;;;;;-4.30;73.34;99157.38;4198685;82;21335;-83
2021/01/15 17:08:27;;;;;;;52.87;19.37;;;;;;;-4.30;72.79;99168.06;4208237;82;21374;-83
2021/01/15 17:14:29;;;;;;;62.37;22.10;;;;;;;-4.44;72.65;99171.88;4203324;82;21194;-83
2021/01/15 17:20:30;;;;;;;58.50;20.93;;;;;;;-4.38;73.11;99177.98;4207714;82;21221;-83
2021/01/15 17:26:38;;;;;;;56.70;18.87;;;;;;;-4.31;73.45;99183.32;4197552;82;21197;-82
2021/01/15 17:32:50;;;;;;;60.93;22.37;;;;;;;-4.34;73.01;99173.70;4203794;82;21261;-82
2021/01/15 17:38:58;;;;;;;56.73;22.43;;;;;;;-4.35;72.71;99188.93;4188849;83;21207;-82
2021/01/15 17:45:27;;;;;;;66.57;23.83;;;;;;;-4.41;72.45;99189.22;4171732;83;28096;-82
2021/01/15 17:51:36;;;;;;;82.23;27.03;;;;;;;-4.47;72.54;99182.30;4112935;84;21384;-82
2021/01/15 17:57:37;;;;;;;75.60;27.53;;;;;;;-4.47;71.90;99186.30;4103471;84;21268;-82
2021/01/15 18:03:39;;;;;;;74.47;25.20;;;;;;;-4.47;71.78;99179.63;3988085;84;9999976;-83
2021/01/15 18:09:41;;;;;;;74.53;24.73;;;;;;;-4.53;72.54;99188.21;4104916;84;21742;-83
2021/01/15 18:15:42;;;;;;;66.50;23.27;;;;;;;-4.56;72.63;99197.30;4107009;85;21254;-83
2021/01/15 18:21:46;;;;;;;70.47;24.73;;;;;;;-4.63;73.19;99201.58;4120897;84;21222;-84
2021/01/15 18:27:48;;;;;;;69.83;25.53;;;;;;;-4.71;73.62;99203.47;4131048;84;21798;-82
2021/01/15 18:33:49;;;;;;;76.00;26.43;;;;;;;-4.70;74.06;99203.76;4135234;84;21246;-82
2021/01/15 18:39:51;;;;;;;77.93;27.57;;;;;;;-4.69;74.90;99196.00;4130557;84;21222;-83
2021/01/15 18:45:52;;;;;;;79.87;29.23;;;;;;;-4.76;74.77;99197.36;4099673;84;21235;-82
2021/01/15 18:51:55;;;;;;;80.20;30.23;;;;;;;-4.86;75.40;99201.66;4085384;85;21251;-82
2021/01/15 18:57:58;;;;;;;94.97;32.10;;;;;;;-4.78;75.62;99200.30;4071224;85;21273;-82
2021/01/15 19:04:00;;;;;;;97.63;36.37;;;;;;;-4.76;75.41;99205.38;4108274;84;21236;-82
2021/01/15 19:10:04;;;;;;;100.67;35.17;;;;;;;-4.84;75.81;99202.16;4083204;84;21395;-83
2021/01/15 19:16:06;;;;;;;107.20;36.00;;;;;;;-4.84;75.83;99205.39;4073912;85;21464;-83
2021/01/15 19:22:07;;;;;;;118.73;40.07;;;;;;;-4.86;75.78;99202.18;4094427;85;21652;-83
2021/01/15 19:28:24;;;;;;;111.27;39.83;;;;;;;-4.83;76.12;99214.98;4090992;85;21242;-83
2021/01/15 19:34:25;;;;;;;;;;;;;;;-4.79;76.33;99216.03;4103031;84;21391;-83
2021/01/15 19:40:27;;;;;;;129.40;41.63;;;;;;;-4.78;76.38;99211.50;4104228;84;20227;-82
2021/01/15 19:46:28;;;;;;;122.33;41.17;;;;;;;-4.80;76.51;99206.44;4100152;84;21215;-82
2021/01/15 19:52:40;;;;;;;124.23;43.23;;;;;;;-4.82;76.68;99221.39;4101043;84;21180;-84
2021/01/15 19:58:42;;;;;;;109.80;37.40;;;;;;;-4.82;76.97;99221.39;4074721;85;21457;-83
2021/01/15 20:04:43;;;;;;;107.33;38.73;;;;;;;-4.79;77.08;99213.37;4074833;84;21208;-84
2021/01/15 20:10:47;;;;;;;113.57;39.57;;;;;;;-4.81;77.12;99206.96;4113121;84;21221;-84
2021/01/15 20:16:48;;;;;;;106.60;38.30;;;;;;;-4.78;77.60;99209.65;4098040;84;21926;-84
2021/01/15 20:22:50;;;;;;;110.93;40.57;;;;;;;-4.74;77.94;99204.02;4094356;85;21379;-82
2021/01/15 20:28:52;;;;;;;111.13;41.70;;;;;;;-4.74;78.27;99217.37;4106139;84;21270;-83
2021/01/15 20:34:53;;;;;;;125.37;41.77;;;;;;;-4.68;78.59;99214.95;4079490;85;21228;-82
2021/01/15 20:40:55;;;;;;;104.93;38.07;;;;;;;-4.61;78.54;99220.02;3978624;86;21727;-81
2021/01/15 20:46:57;;;;;;;108.87;39.77;;;;;;;-4.55;78.42;99225.61;4117023;84;21213;-81
2021/01/15 20:53:01;;;;;;;101.33;39.13;;;;;;;-4.51;78.87;99240.03;4081366;84;21240;-82
2021/01/15 20:59:04;;;;;;;106.37;36.43;;;;;;;-4.49;79.16;99244.02;4104963;85;21631;-82
2021/01/15 21:05:07;;;;;;;103.53;38.70;;;;;;;-4.50;79.39;99242.97;4110907;84;21193;-82
2021/01/15 21:11:09;;;;;;;137.47;46.57;;;;;;;-4.48;79.52;99254.19;4101908;84;21204;-82
2021/01/15 21:17:10;;;;;;;115.40;39.93;;;;;;;-4.53;79.88;99252.33;4093611;84;21223;-82
2021/01/15 21:23:12;;;;;;;110.90;36.60;;;;;;;-4.53;80.02;99255.00;4082320;84;21201;-82
2021/01/15 21:29:13;;;;;;;97.90;38.13;;;;;;;-4.47;80.14;99253.92;4104638;84;21201;-82
2021/01/15 21:35:19;;;;;;;97.03;38.30;;;;;;;-4.43;80.12;99244.83;4103006;84;21204;-85
2021/01/15 21:41:20;;;;;;;81.40;30.27;;;;;;;-4.42;80.09;99239.73;4102740;84;21402;-83
2021/01/15 21:47:22;;;;;;;108.10;37.50;;;;;;;-4.44;80.09;99237.86;4103766;84;21226;-82
2021/01/15 21:53:24;;;;;;;103.57;39.97;;;;;;;-4.46;80.11;99238.70;4114983;84;21223;-83
2021/01/15 21:59:26;;;;;;;102.60;38.60;;;;;;;-4.48;80.14;99243.50;4100836;84;21252;-83
2021/01/15 22:05:29;;;;;;;105.57;39.53;;;;;;;-4.48;80.18;99243.50;4086769;85;21225;-82
2021/01/15 22:11:31;;;;;;;102.43;37.83;;;;;;;-4.50;80.15;99253.13;4086776;85;21201;-82
2021/01/15 22:17:33;;;;;;;105.77;41.73;;;;;;;-4.52;80.21;99248.58;4103715;85;21706;-83
2021/01/15 22:23:34;;;;;;;102.87;40.53;;;;;;;-4.47;80.28;99244.56;4114053;84;21382;-82
2021/01/15 22:29:36;;;;;;;115.07;42.47;;;;;;;-4.47;80.34;99245.09;4092085;85;21220;-82
2021/01/15 22:35:39;;;;;;;109.47;41.57;;;;;;;-4.48;80.34;99240.30;4099303;85;21229;-82
2021/01/15 22:41:41;;;;;;;120.00;41.63;;;;;;;-4.47;80.32;99243.23;4085715;84;21189;-82
2021/01/15 22:47:42;;;;;;;121.10;46.90;;;;;;;-4.48;80.49;99247.51;3959807;88;21231;-82
2021/01/15 22:53:44;;;;;;;122.07;51.20;;;;;;;-4.51;80.47;99247.50;4082985;85;21394;-82
2021/01/15 22:59:45;;;;;;;150.60;62.23;;;;;;;-4.54;80.55;99261.40;4081206;85;21565;-82
2021/01/15 23:05:47;;;;;;;138.23;56.47;;;;;;;-4.59;80.70;99261.95;4077857;85;21861;-82
2021/01/15 23:11:49;;;;;;;127.70;49.80;;;;;;;-4.58;80.82;99267.03;4085306;85;21189;-88
2021/01/15 23:17:51;;;;;;;129.33;48.07;;;;;;;-4.56;81.07;99267.57;4092999;85;21172;-88
2021/01/15 23:23:57;;;;;;;117.63;46.67;;;;;;;-4.46;81.14;99270.76;4090436;85;21212;-88
2021/01/15 23:29:59;;;;;;;114.67;46.10;;;;;;;-4.46;81.28;99278.78;4097060;85;21177;-88
2021/01/15 23:36:01;;;;;;;126.73;45.93;;;;;;;-4.46;81.36;99281.45;4084279;85;21153;-88
2021/01/15 23:42:04;;;;;;;108.23;40.73;;;;;;;-4.55;81.21;99285.19;4069696;85;21256;-88
2021/01/15 23:48:08;;;;;;;96.17;37.67;;;;;;;-4.58;81.05;99284.39;4088131;85;21209;-88
2021/01/15 23:54:13;;;;;;;88.60;34.40;;;;;;;-4.74;80.87;99293.48;4075323;85;21146;-88
